createdAt,value
2019-03-31T00:00:33.833Z,7.50
2019-03-31T00:03:02.497Z,7.50
2019-03-31T00:05:31.124Z,7.40
2019-03-31T00:07:59.703Z,7.40
2019-03-31T00:10:28.399Z,7.30
2019-03-31T00:12:57.052Z,7.40
2019-03-31T00:15:25.681Z,7.30
2019-03-31T00:18:13.674Z,7.20
2019-03-31T00:20:42.228Z,7.20
2019-03-31T00:23:30.213Z,7.20
2019-03-31T00:25:58.839Z,7.00
2019-03-31T00:28:46.831Z,7.10
2019-03-31T00:31:21.925Z,6.90
2019-03-31T00:33:45.628Z,6.90
2019-03-31T00:36:14.256Z,7.00
2019-03-31T00:38:42.976Z,6.90
2019-03-31T00:41:11.533Z,6.90
2019-03-31T00:43:40.183Z,6.80
2019-03-31T00:46:08.808Z,6.80
2019-03-31T00:48:37.464Z,6.70
2019-03-31T00:51:25.355Z,6.70
2019-03-31T00:54:13.271Z,6.80
2019-03-31T00:57:01.201Z,6.90
2019-03-31T00:59:42.295Z,6.90
2019-03-31T01:02:13.765Z,6.80
2019-03-31T01:04:42.574Z,6.80
2019-03-31T01:07:11.501Z,6.80
2019-03-31T01:09:41.491Z,6.80
2019-03-31T01:12:10.716Z,6.70
2019-03-31T01:14:39.411Z,6.70
2019-03-31T01:17:09.876Z,6.50
2019-03-31T01:19:38.716Z,6.50
2019-03-31T01:22:26.631Z,6.50
2019-03-31T01:24:55.249Z,6.50
2019-03-31T01:27:24.345Z,6.40
2019-03-31T01:29:54.802Z,6.40
2019-03-31T01:32:23.731Z,6.30
2019-03-31T01:34:52.358Z,6.20
2019-03-31T01:37:21.247Z,6.20
2019-03-31T01:40:09.234Z,6.20
2019-03-31T01:42:37.884Z,6.10
2019-03-31T01:45:08.142Z,6.20
2019-03-31T01:47:36.896Z,6.30
2019-03-31T01:50:08.528Z,6.30
2019-03-31T01:52:37.252Z,6.30
2019-03-31T01:55:08.112Z,6.20
2019-03-31T01:57:49.133Z,6.20
2019-03-31T02:00:38.273Z,6.20
2019-03-31T02:03:26.331Z,6.20
2019-03-31T02:05:54.960Z,6.20
2019-03-31T02:08:24.124Z,6.10
2019-03-31T02:10:52.676Z,6.00
2019-03-31T02:13:21.257Z,6.00
2019-03-31T02:15:49.880Z,6.00
2019-03-31T02:18:18.777Z,6.00
2019-03-31T02:20:47.345Z,5.90
2019-03-31T02:23:15.982Z,5.90
2019-03-31T02:25:44.540Z,5.80
2019-03-31T02:28:13.124Z,5.70
2019-03-31T02:30:41.791Z,5.80
2019-03-31T02:33:10.360Z,5.70
2019-03-31T02:35:38.926Z,5.70
2019-03-31T02:38:26.917Z,5.70
2019-03-31T02:40:55.544Z,5.80
2019-03-31T02:43:24.195Z,5.80
2019-03-31T02:45:52.749Z,5.80
2019-03-31T02:48:21.333Z,5.70
2019-03-31T02:51:09.295Z,5.70
2019-03-31T02:53:38.099Z,5.70
2019-03-31T02:56:06.983Z,5.70
2019-03-31T02:58:36.902Z,5.60
2019-03-31T03:01:05.527Z,5.70
2019-03-31T03:03:37.155Z,5.60
2019-03-31T03:06:06.049Z,5.70
2019-03-31T03:08:36.394Z,5.60
2019-03-31T03:11:05.376Z,5.60
2019-03-31T03:13:35.400Z,5.50
2019-03-31T03:16:23.375Z,5.50
2019-03-31T03:18:52.215Z,5.50
2019-03-31T03:21:40.185Z,5.40
2019-03-31T03:24:08.768Z,5.40
2019-03-31T03:26:37.324Z,5.30
2019-03-31T03:29:06.048Z,5.30
2019-03-31T03:31:34.733Z,5.20
2019-03-31T03:34:03.312Z,5.30
2019-03-31T03:36:31.945Z,5.40
2019-03-31T03:39:19.941Z,5.40
2019-03-31T03:41:48.560Z,5.30
2019-03-31T03:44:17.145Z,5.30
2019-03-31T03:46:45.778Z,5.30
2019-03-31T03:49:14.568Z,5.30
2019-03-31T03:51:43.354Z,5.30
2019-03-31T03:54:12.044Z,5.20
2019-03-31T03:57:00.000Z,5.20
2019-03-31T03:59:28.598Z,5.20
2019-03-31T04:01:57.218Z,5.20
2019-03-31T04:04:25.809Z,5.20
2019-03-31T04:06:54.420Z,5.20
2019-03-31T04:09:23.081Z,5.20
2019-03-31T04:11:51.778Z,5.20
2019-03-31T04:14:20.433Z,5.20
2019-03-31T04:16:50.566Z,5.10
2019-03-31T04:19:19.079Z,5.20
2019-03-31T04:21:47.731Z,5.10
2019-03-31T04:24:35.688Z,5.10
2019-03-31T04:27:04.248Z,5.00
2019-03-31T04:29:32.917Z,4.90
2019-03-31T04:32:01.548Z,5.00
2019-03-31T04:34:30.131Z,5.00
2019-03-31T04:37:18.103Z,4.90
2019-03-31T04:39:46.689Z,4.70
2019-03-31T04:42:34.668Z,4.80
2019-03-31T04:45:03.697Z,4.80
2019-03-31T04:47:32.250Z,4.80
2019-03-31T04:50:00.837Z,4.80
2019-03-31T04:52:29.476Z,4.80
2019-03-31T04:54:58.136Z,4.80
2019-03-31T04:57:26.760Z,4.70
2019-03-31T04:59:55.345Z,4.60
2019-03-31T05:02:26.984Z,4.70
2019-03-31T05:05:13.690Z,4.50
2019-03-31T05:07:42.253Z,4.60
2019-03-31T05:10:11.078Z,4.70
2019-03-31T05:12:58.973Z,4.70
2019-03-31T05:15:27.556Z,4.70
2019-03-31T05:17:56.111Z,4.70
2019-03-31T05:20:24.692Z,4.80
2019-03-31T05:22:53.254Z,4.70
2019-03-31T05:25:41.237Z,4.80
2019-03-31T05:28:09.859Z,4.80
2019-03-31T05:30:38.581Z,4.80
2019-03-31T05:33:07.209Z,4.80
2019-03-31T05:35:35.793Z,4.70
2019-03-31T05:38:04.422Z,4.80
2019-03-31T05:40:33.000Z,4.90
2019-03-31T05:43:01.633Z,4.90
2019-03-31T05:45:30.287Z,4.90
2019-03-31T05:48:18.184Z,4.90
2019-03-31T05:50:46.943Z,5.00
2019-03-31T05:53:15.568Z,5.00
2019-03-31T05:55:44.226Z,5.00
2019-03-31T05:58:13.019Z,5.10
2019-03-31T06:00:43.245Z,5.10
2019-03-31T06:03:11.863Z,5.20
2019-03-31T06:05:40.452Z,5.20
2019-03-31T06:08:28.344Z,5.20
2019-03-31T06:10:56.996Z,5.00
2019-03-31T06:13:25.630Z,5.20
2019-03-31T06:15:54.292Z,5.20
2019-03-31T06:18:22.849Z,5.20
2019-03-31T06:20:51.501Z,5.30
2019-03-31T06:23:20.120Z,5.30
2019-03-31T06:25:48.709Z,5.40
2019-03-31T06:28:36.659Z,5.40
2019-03-31T06:31:05.325Z,5.50
2019-03-31T06:33:53.319Z,5.60
2019-03-31T06:36:21.877Z,5.60
2019-03-31T06:38:50.497Z,5.60
2019-03-31T06:41:19.232Z,6.00
2019-03-31T06:43:47.859Z,6.30
2019-03-31T06:46:16.440Z,6.60
2019-03-31T06:48:44.983Z,6.80
2019-03-31T06:51:16.931Z,7.00
2019-03-31T06:53:43.983Z,7.20
2019-03-31T06:56:12.581Z,7.40
2019-03-31T06:58:41.216Z,7.50
2019-03-31T07:01:11.333Z,7.60
2019-03-31T07:03:39.883Z,7.80
2019-03-31T07:06:08.470Z,7.90
2019-03-31T07:08:37.093Z,8.00
2019-03-31T07:11:05.679Z,8.00
2019-03-31T07:13:34.312Z,8.10
2019-03-31T07:16:02.895Z,8.20
2019-03-31T07:18:50.857Z,8.40
2019-03-31T07:21:19.523Z,8.60
2019-03-31T07:24:07.481Z,8.70
2019-03-31T07:26:55.473Z,8.90
2019-03-31T07:29:24.033Z,9.00
2019-03-31T07:31:52.765Z,9.20
2019-03-31T07:34:40.690Z,9.40
2019-03-31T07:37:09.244Z,9.50
2019-03-31T07:39:38.107Z,9.50
2019-03-31T07:42:06.863Z,9.50
2019-03-31T07:44:35.444Z,9.60
2019-03-31T07:47:04.028Z,9.80
2019-03-31T07:49:32.603Z,9.80
2019-03-31T07:52:01.255Z,10.00
2019-03-31T07:54:29.817Z,10.20
2019-03-31T07:56:58.472Z,10.30
2019-03-31T07:59:27.057Z,10.50
2019-03-31T08:01:55.616Z,10.60
2019-03-31T08:04:24.176Z,10.80
2019-03-31T08:06:52.760Z,10.90
2019-03-31T08:09:21.317Z,10.90
2019-03-31T08:11:49.976Z,11.10
2019-03-31T08:14:18.524Z,11.20
2019-03-31T08:16:47.108Z,11.50
2019-03-31T08:19:15.668Z,11.70
2019-03-31T08:21:44.255Z,11.80
2019-03-31T08:24:12.813Z,11.90
2019-03-31T08:26:41.487Z,12.10
2019-03-31T08:29:10.109Z,12.40
2019-03-31T08:31:38.698Z,12.50
2019-03-31T08:34:26.599Z,12.70
2019-03-31T08:36:55.356Z,12.80
2019-03-31T08:39:23.911Z,13.00
2019-03-31T08:41:52.497Z,13.10
2019-03-31T08:44:21.047Z,13.30
2019-03-31T08:46:49.642Z,13.50
2019-03-31T08:49:18.265Z,13.70
2019-03-31T08:51:46.854Z,13.90
2019-03-31T08:54:15.419Z,14.30
2019-03-31T08:56:44.013Z,14.80
2019-03-31T08:59:12.574Z,15.20
2019-03-31T09:02:03.384Z,15.40
2019-03-31T09:04:32.168Z,15.60
2019-03-31T09:07:00.902Z,15.80
2019-03-31T09:09:29.528Z,15.90
2019-03-31T09:11:58.122Z,16.00
2019-03-31T09:14:26.752Z,16.10
2019-03-31T09:16:55.339Z,16.20
2019-03-31T09:19:23.904Z,16.40
2019-03-31T09:21:52.507Z,16.40
2019-03-31T09:24:21.078Z,16.50
2019-03-31T09:27:09.101Z,16.50
2019-03-31T09:29:37.729Z,16.60
2019-03-31T09:32:06.389Z,16.70
2019-03-31T09:34:34.953Z,16.80
2019-03-31T09:37:03.717Z,16.90
2019-03-31T09:39:32.348Z,17.00
2019-03-31T09:42:01.007Z,17.20
2019-03-31T09:44:30.414Z,17.20
2019-03-31T09:46:59.232Z,17.20
2019-03-31T09:49:27.796Z,17.30
2019-03-31T09:51:56.467Z,17.20
2019-03-31T09:54:25.034Z,17.20
2019-03-31T09:56:53.620Z,17.10
2019-03-31T09:59:22.327Z,17.10
2019-03-31T10:01:51.019Z,17.20
2019-03-31T10:04:19.653Z,17.30
2019-03-31T10:06:48.474Z,17.30
2019-03-31T10:09:17.176Z,17.50
2019-03-31T10:11:45.836Z,17.60
2019-03-31T10:14:14.397Z,17.70
2019-03-31T10:16:42.978Z,17.70
2019-03-31T10:19:11.564Z,17.70
2019-03-31T10:21:40.124Z,17.60
2019-03-31T10:24:08.712Z,17.70
2019-03-31T10:26:37.277Z,17.80
2019-03-31T10:29:05.866Z,17.90
2019-03-31T10:31:34.504Z,18.00
2019-03-31T10:34:03.623Z,18.10
2019-03-31T10:36:43.732Z,18.00
2019-03-31T10:39:02.483Z,18.10
2019-03-31T10:41:31.168Z,18.10
2019-03-31T10:43:59.728Z,18.20
2019-03-31T10:46:28.288Z,18.40
2019-03-31T10:48:56.881Z,18.30
2019-03-31T10:51:25.507Z,18.30
2019-03-31T10:53:54.168Z,18.30
2019-03-31T10:56:22.728Z,18.30
2019-03-31T10:58:51.320Z,18.30
2019-03-31T11:01:19.949Z,18.20
2019-03-31T11:03:48.602Z,18.30
2019-03-31T11:06:17.232Z,18.30
2019-03-31T11:08:45.889Z,18.40
2019-03-31T11:11:14.512Z,18.40
2019-03-31T11:13:43.245Z,18.40
2019-03-31T11:16:11.799Z,18.50
2019-03-31T11:18:40.525Z,18.40
2019-03-31T11:21:10.716Z,18.50
2019-03-31T11:23:39.300Z,18.50
2019-03-31T11:26:07.862Z,18.60
2019-03-31T11:28:36.452Z,18.50
2019-03-31T11:31:05.064Z,18.50
2019-03-31T11:33:33.656Z,18.50
2019-03-31T11:36:03.592Z,18.60
2019-03-31T11:38:32.249Z,18.70
2019-03-31T11:41:00.806Z,19.00
2019-03-31T11:43:29.398Z,19.00
2019-03-31T11:45:58.028Z,18.80
2019-03-31T11:48:26.624Z,18.90
2019-03-31T11:50:56.528Z,18.90
2019-03-31T11:53:44.456Z,19.10
2019-03-31T11:56:13.086Z,19.10
2019-03-31T11:58:41.808Z,18.90
2019-03-31T12:01:10.366Z,18.80
2019-03-31T12:03:39.024Z,18.60
2019-03-31T12:06:11.060Z,18.50
2019-03-31T12:08:38.088Z,18.50
2019-03-31T12:11:06.644Z,18.60
2019-03-31T12:13:35.314Z,18.60
2019-03-31T12:16:04.010Z,18.70
2019-03-31T12:18:51.996Z,18.90
2019-03-31T12:21:20.543Z,19.10
2019-03-31T12:23:49.137Z,19.10
2019-03-31T12:26:17.764Z,18.90
2019-03-31T12:28:46.349Z,18.80
2019-03-31T12:31:14.973Z,18.70
2019-03-31T12:33:43.557Z,18.50
2019-03-31T12:36:12.247Z,18.50
2019-03-31T12:38:41.023Z,18.70
2019-03-31T12:41:09.872Z,18.60
2019-03-31T12:43:38.464Z,18.60
2019-03-31T12:46:07.169Z,18.80
2019-03-31T12:48:35.772Z,18.60
2019-03-31T12:51:04.401Z,18.80
2019-03-31T12:53:32.996Z,19.00
2019-03-31T12:56:01.564Z,19.10
2019-03-31T12:58:30.151Z,19.20
2019-03-31T13:00:58.773Z,19.30
2019-03-31T13:03:27.393Z,19.50
2019-03-31T13:05:55.950Z,19.40
2019-03-31T13:08:24.536Z,19.10
2019-03-31T13:10:53.237Z,19.10
2019-03-31T13:13:21.830Z,19.10
2019-03-31T13:15:50.456Z,19.10
2019-03-31T13:18:19.039Z,19.20
2019-03-31T13:20:48.068Z,19.20
2019-03-31T13:23:16.636Z,19.30
2019-03-31T13:25:45.220Z,19.20
2019-03-31T13:28:13.776Z,19.10
2019-03-31T13:30:42.429Z,19.10
2019-03-31T13:33:10.987Z,19.00
2019-03-31T13:35:39.641Z,19.00
2019-03-31T13:38:11.487Z,18.90
2019-03-31T13:40:38.575Z,18.80
2019-03-31T13:43:07.205Z,18.90
2019-03-31T13:45:35.799Z,19.10
2019-03-31T13:48:04.489Z,19.10
2019-03-31T13:50:33.216Z,19.20
2019-03-31T13:53:01.774Z,19.20
2019-03-31T13:55:30.429Z,19.10
2019-03-31T13:57:59.580Z,19.20
2019-03-31T14:00:39.962Z,19.00
2019-03-31T14:03:08.871Z,19.00
2019-03-31T14:05:37.536Z,19.00
2019-03-31T14:08:06.794Z,18.90
2019-03-31T14:10:35.461Z,18.80
2019-03-31T14:13:04.644Z,18.90
2019-03-31T14:15:33.381Z,19.10
2019-03-31T14:18:02.074Z,19.20
2019-03-31T14:20:30.668Z,19.10
2019-03-31T14:22:59.295Z,19.10
2019-03-31T14:25:27.888Z,19.10
2019-03-31T14:27:56.519Z,18.80
2019-03-31T14:30:25.247Z,18.70
2019-03-31T14:32:53.880Z,18.70
2019-03-31T14:35:23.029Z,18.50
2019-03-31T14:37:51.658Z,18.60
2019-03-31T14:40:20.388Z,18.70
2019-03-31T14:42:48.943Z,18.80
2019-03-31T14:45:31.912Z,18.80
2019-03-31T14:48:01.520Z,18.90
2019-03-31T14:50:35.397Z,18.90
2019-03-31T14:53:04.584Z,18.90
2019-03-31T14:55:33.408Z,19.00
2019-03-31T14:58:02.064Z,18.90
2019-03-31T15:00:30.863Z,18.90
2019-03-31T15:02:59.668Z,18.90
2019-03-31T15:05:28.365Z,18.90
2019-03-31T15:07:58.530Z,18.90
2019-03-31T15:10:27.425Z,18.80
2019-03-31T15:12:55.975Z,18.90
2019-03-31T15:15:24.732Z,18.90
2019-03-31T15:17:53.284Z,18.90
2019-03-31T15:20:22.208Z,19.00
2019-03-31T15:22:51.571Z,18.90
2019-03-31T15:25:20.407Z,18.90
2019-03-31T15:27:48.963Z,19.00
2019-03-31T15:30:17.788Z,18.90
2019-03-31T15:32:46.344Z,18.90
2019-03-31T15:35:15.073Z,18.80
2019-03-31T15:37:43.625Z,18.70
2019-03-31T15:40:12.963Z,18.60
2019-03-31T15:42:42.844Z,18.70
2019-03-31T15:45:11.834Z,18.60
2019-03-31T15:47:40.387Z,18.60
2019-03-31T15:50:09.520Z,18.60
2019-03-31T15:52:38.142Z,18.70
2019-03-31T15:55:10.072Z,18.70
2019-03-31T15:57:38.661Z,18.70
2019-03-31T16:00:08.278Z,18.70
2019-03-31T16:02:36.972Z,18.60
2019-03-31T16:05:08.700Z,18.60
2019-03-31T16:07:37.327Z,18.50
2019-03-31T16:10:06.920Z,18.60
2019-03-31T16:12:35.576Z,18.60
2019-03-31T16:15:05.577Z,18.60
2019-03-31T16:17:34.233Z,18.60
2019-03-31T16:20:04.800Z,18.50
2019-03-31T16:22:33.462Z,18.50
2019-03-31T16:25:03.727Z,18.40
2019-03-31T16:27:32.391Z,18.40
2019-03-31T16:30:00.954Z,18.40
2019-03-31T16:32:29.549Z,18.30
2019-03-31T16:34:58.188Z,18.30
2019-03-31T16:37:26.777Z,18.20
2019-03-31T16:39:55.342Z,18.20
2019-03-31T16:42:25.470Z,18.10
2019-03-31T16:44:58.510Z,18.20
2019-03-31T16:47:24.345Z,18.10
2019-03-31T16:49:52.932Z,17.90
2019-03-31T16:52:22.456Z,17.90
2019-03-31T16:54:51.181Z,17.80
2019-03-31T16:57:19.744Z,17.80
2019-03-31T16:59:48.332Z,17.60
2019-03-31T17:02:16.962Z,17.60
2019-03-31T17:04:45.543Z,17.40
2019-03-31T17:07:14.125Z,17.40
2019-03-31T17:09:51.259Z,17.40
2019-03-31T17:12:13.068Z,17.00
2019-03-31T17:14:41.629Z,16.80
2019-03-31T17:17:10.288Z,16.60
2019-03-31T17:19:38.851Z,16.50
2019-03-31T17:22:07.509Z,16.30
2019-03-31T17:24:36.161Z,16.20
2019-03-31T17:27:04.882Z,16.10
2019-03-31T17:29:33.439Z,16.00
2019-03-31T17:32:02.035Z,15.90
2019-03-31T17:34:30.596Z,15.80
2019-03-31T17:36:59.188Z,15.70
2019-03-31T17:39:27.759Z,15.60
2019-03-31T17:41:56.414Z,15.60
2019-03-31T17:44:25.212Z,15.50
2019-03-31T17:46:53.877Z,15.40
2019-03-31T17:49:22.435Z,15.40
2019-03-31T17:51:51.292Z,15.30
2019-03-31T17:54:19.857Z,15.20
2019-03-31T17:56:48.521Z,15.10
2019-03-31T17:59:17.084Z,14.90
2019-03-31T18:01:45.753Z,14.90
2019-03-31T18:04:14.679Z,14.90
2019-03-31T18:06:43.283Z,14.80
2019-03-31T18:09:12.252Z,14.80
2019-03-31T18:11:41.144Z,14.70
2019-03-31T18:14:10.108Z,14.60
2019-03-31T18:16:39.143Z,14.60
2019-03-31T18:19:07.836Z,14.50
2019-03-31T18:21:36.428Z,14.50
2019-03-31T18:24:05.057Z,14.50
2019-03-31T18:26:33.660Z,14.40
2019-03-31T18:29:02.221Z,14.40
2019-03-31T18:31:30.964Z,14.30
2019-03-31T18:33:59.519Z,14.20
2019-03-31T18:36:36.436Z,14.20
2019-03-31T18:38:58.460Z,14.20
2019-03-31T18:41:27.132Z,14.10
2019-03-31T18:43:55.691Z,14.00
2019-03-31T18:46:24.436Z,14.00
2019-03-31T18:48:53.068Z,14.00
2019-03-31T18:51:21.677Z,13.90
2019-03-31T18:54:08.028Z,13.90
2019-03-31T18:56:53.340Z,13.80
2019-03-31T18:59:29.317Z,13.80
2019-03-31T19:02:05.064Z,13.70
2019-03-31T19:04:51.256Z,13.70
2019-03-31T19:07:24.351Z,13.70
2019-03-31T19:10:23.926Z,13.60
2019-03-31T19:12:59.425Z,13.50
2019-03-31T19:15:38.406Z,13.40
2019-03-31T19:18:24.801Z,13.40
2019-03-31T19:21:11.031Z,13.30
2019-03-31T19:23:32.849Z,13.30
2019-03-31T19:26:19.345Z,13.20
2019-03-31T19:28:49.548Z,13.20
2019-03-31T19:31:38.160Z,13.10
2019-03-31T19:34:17.699Z,13.10
2019-03-31T19:37:06.019Z,12.90
2019-03-31T19:39:52.858Z,12.90
2019-03-31T19:42:32.348Z,12.90
2019-03-31T19:45:20.676Z,12.80
2019-03-31T19:47:50.925Z,12.80
2019-03-31T19:50:37.812Z,12.70
2019-03-31T19:53:10.877Z,12.60
2019-03-31T19:56:07.386Z,12.60
2019-03-31T19:58:45.292Z,12.60
2019-03-31T20:01:21.795Z,12.60
2019-03-31T20:04:08.335Z,12.50
2019-03-31T20:06:47.868Z,12.50
2019-03-31T20:09:18.082Z,12.40
2019-03-31T20:11:48.385Z,12.40
2019-03-31T20:17:38.925Z,12.20
2019-03-31T20:20:09.468Z,12.10
2019-03-31T20:22:48.483Z,12.00
2019-03-31T20:25:21.696Z,12.00
2019-03-31T20:28:07.009Z,11.90
2019-03-31T20:30:46.464Z,11.90
2019-03-31T20:33:28.737Z,11.70
2019-03-31T20:36:17.347Z,11.70
2019-03-31T20:38:56.114Z,11.70
2019-03-31T20:41:35.321Z,11.60
2019-03-31T20:44:04.051Z,11.60
2019-03-31T20:46:32.611Z,11.50
2019-03-31T20:49:01.277Z,11.50
2019-03-31T20:51:29.845Z,11.50
2019-03-31T20:53:59.977Z,11.40
2019-03-31T20:56:28.603Z,11.30
2019-03-31T20:58:57.274Z,11.30
2019-03-31T21:01:25.837Z,11.30
2019-03-31T21:03:54.500Z,11.20
2019-03-31T21:06:23.132Z,11.10
2019-03-31T21:08:51.724Z,11.10
2019-03-31T21:11:20.424Z,11.10
2019-03-31T21:13:49.019Z,11.00
2019-03-31T21:16:17.581Z,10.90
2019-03-31T21:18:46.241Z,10.90
2019-03-31T21:21:14.873Z,11.00
2019-03-31T21:23:43.460Z,10.80
2019-03-31T21:26:12.026Z,10.80
2019-03-31T21:28:40.691Z,10.80
2019-03-31T21:31:28.665Z,10.80
2019-03-31T21:33:57.255Z,10.70
2019-03-31T21:36:25.889Z,10.60
2019-03-31T21:38:54.552Z,10.60
2019-03-31T21:41:23.121Z,10.50
2019-03-31T21:43:51.707Z,10.60
2019-03-31T21:46:20.352Z,10.50
2019-03-31T21:48:49.522Z,10.40
2019-03-31T21:51:18.151Z,10.40
2019-03-31T21:53:46.744Z,10.40
2019-03-31T21:56:15.307Z,10.30
2019-03-31T21:58:44.049Z,10.30
2019-03-31T22:01:12.948Z,10.30
2019-03-31T22:03:41.614Z,10.30
2019-03-31T22:06:10.248Z,10.20
2019-03-31T22:08:38.840Z,10.20
2019-03-31T22:11:07.409Z,10.20
2019-03-31T22:13:36.009Z,10.10
2019-03-31T22:16:04.576Z,10.10
2019-03-31T22:18:52.575Z,10.10
2019-03-31T22:21:21.209Z,10.00
2019-03-31T22:23:57.907Z,10.00
2019-03-31T22:26:20.161Z,9.90
2019-03-31T22:28:49.019Z,9.90
2019-03-31T22:31:17.640Z,9.90
2019-03-31T22:33:46.307Z,9.90
2019-03-31T22:36:21.029Z,9.80
2019-03-31T22:38:53.254Z,9.90
2019-03-31T22:41:41.216Z,9.80
2019-03-31T22:44:09.877Z,9.80
2019-03-31T22:46:38.732Z,9.70
2019-03-31T22:49:07.297Z,9.70
2019-03-31T22:51:35.923Z,9.70
2019-03-31T22:54:04.654Z,9.70
2019-03-31T22:56:33.220Z,9.80
2019-03-31T22:59:21.215Z,9.70
2019-03-31T23:01:49.775Z,9.60
2019-03-31T23:04:18.436Z,9.60
2019-03-31T23:06:47.006Z,9.60
2019-03-31T23:09:15.594Z,9.50
2019-03-31T23:11:44.158Z,9.50
2019-03-31T23:14:14.296Z,9.50
2019-03-31T23:16:42.924Z,9.50
2019-03-31T23:19:11.657Z,9.50
2019-03-31T23:21:40.287Z,9.50
2019-03-31T23:24:08.954Z,9.50
2019-03-31T23:26:37.512Z,9.40
2019-03-31T23:29:25.505Z,9.40
2019-03-31T23:32:13.474Z,9.30
2019-03-31T23:34:42.140Z,9.30
2019-03-31T23:37:10.843Z,9.30
2019-03-31T23:39:58.799Z,9.30
2019-03-31T23:42:27.430Z,9.30
2019-03-31T23:44:56.090Z,9.30
2019-03-31T23:47:26.184Z,9.20
2019-03-31T23:49:54.852Z,9.10
2019-03-31T23:52:23.481Z,9.20
2019-03-31T23:54:52.148Z,9.20
2019-03-31T23:57:22.343Z,9.10
2019-03-31T23:59:50.939Z,9.10
